Time;durP1;ratioP1;P1;durP2;ratioP2;P2;SDS_P1;SDS_P2;PMS_P1;PMS_P2;Temp;Humidity;BMP_temperature;BMP_pressure;BME280_temperature;BME280_humidity;BME280_pressure;Samples;Min_cycle;Max_cycle;Signal;HPM_P1;HPM_P2
2021/12/15 00:01:30;;;;;;;1.50;0.65;;;;;;;6.65;90.18;100602.16;4988582;28;20143;-69
2021/12/15 00:03:58;;;;;;;1.55;0.57;;;;;;;6.59;93.26;100602.75;4982250;28;20053;-68
2021/12/15 00:06:27;;;;;;;0.80;0.38;;;;;;;6.55;96.71;100600.88;4977194;28;20117;-68
2021/12/15 00:08:58;;;;;;;2.53;0.40;;;;;;;6.50;96.07;100602.34;4980596;28;20058;-70
2021/12/15 00:11:32;;;;;;;0.82;0.50;;;;;;;6.45;95.98;100607.28;4971952;28;20047;-68
2021/12/15 00:14:03;;;;;;;0.65;0.40;;;;;;;6.36;98.43;100599.19;4972080;28;20475;-68
2021/12/15 00:16:32;;;;;;;2.05;0.75;;;;;;;6.33;100.00;100608.47;4985467;28;20047;-69
2021/12/15 00:19:00;;;;;;;4.05;0.63;;;;;;;6.27;100.00;100609.06;4972346;28;20058;-70
2021/12/15 00:21:29;;;;;;;3.00;0.40;;;;;;;6.24;100.00;100604.66;4971849;28;20506;-70
2021/12/15 00:23:58;;;;;;;1.90;0.60;;;;;;;6.24;100.00;100612.38;4971511;28;20145;-70
2021/12/15 00:26:26;;;;;;;1.27;1.00;;;;;;;6.23;100.00;100612.28;4971751;28;20065;-70
2021/12/15 00:28:55;;;;;;;2.97;0.60;;;;;;;6.21;100.00;100609.69;4972071;28;20082;-69
2021/12/15 00:31:25;;;;;;;0.88;0.50;;;;;;;6.21;100.00;100619.09;4975018;28;20051;-69
2021/12/15 00:33:53;;;;;;;0.75;0.32;;;;;;;6.18;100.00;100616.34;4959305;28;20051;-69
2021/12/15 00:36:22;;;;;;;2.85;0.60;;;;;;;6.16;100.00;100615.41;4971752;28;20066;-69
2021/12/15 00:38:50;;;;;;;3.53;0.70;;;;;;;6.11;100.00;100617.75;4971483;28;20142;-69
2021/12/15 00:41:19;;;;;;;0.85;0.57;;;;;;;6.11;100.00;100619.47;4971206;28;20058;-70
2021/12/15 00:43:48;;;;;;;4.70;0.30;;;;;;;6.08;100.00;100623.66;4983289;28;20043;-69
2021/12/15 00:46:16;;;;;;;1.33;0.70;;;;;;;6.08;100.00;100621.06;4971698;28;20058;-70
2021/12/15 00:48:48;;;;;;;2.88;0.80;;;;;;;6.10;100.00;100626.28;4971764;28;20061;-69
2021/12/15 00:51:17;;;;;;;2.63;0.50;;;;;;;6.08;100.00;100630.47;4971421;28;20047;-69
2021/12/15 00:53:45;;;;;;;6.10;0.63;;;;;;;6.03;100.00;100634.53;4971449;28;20062;-69
2021/12/15 00:56:14;;;;;;;2.30;0.77;;;;;;;5.98;100.00;100636.91;4973104;28;20112;-69
2021/12/15 00:58:42;;;;;;;0.73;0.52;;;;;;;5.94;100.00;100635.00;4975158;28;20055;-70
2021/12/15 01:01:11;;;;;;;3.83;0.45;;;;;;;5.93;100.00;100640.88;4989111;28;20042;-69
2021/12/15 01:03:40;;;;;;;2.10;0.55;;;;;;;5.87;100.00;100640.63;4983302;28;20050;-70
2021/12/15 01:06:16;;;;;;;1.75;0.60;;;;;;;5.86;100.00;100646.53;4970811;28;20046;-69
2021/12/15 01:08:48;;;;;;;0.80;0.63;;;;;;;5.83;100.00;100646.41;4983408;28;20050;-69
2021/12/15 01:11:29;;;;;;;4.65;0.52;;;;;;;5.79;100.00;100636.81;4989480;28;20061;-68
2021/12/15 01:19:51;;;;;;;2.45;0.50;;;;;;;5.77;100.00;100646.13;4993161;28;20053;-68
2021/12/15 01:22:26;;;;;;;1.75;0.70;;;;;;;5.79;100.00;100644.50;4991388;28;20042;-67
2021/12/15 01:24:56;;;;;;;1.67;0.60;;;;;;;5.79;100.00;100639.38;4993859;28;20683;-68
2021/12/15 01:27:26;;;;;;;0.90;0.47;;;;;;;5.80;100.00;100657.44;4994770;28;20050;-69
2021/12/15 01:29:55;;;;;;;0.95;0.70;;;;;;;5.81;100.00;100645.47;4998387;28;20082;-69
2021/12/15 01:32:23;;;;;;;1.10;0.70;;;;;;;5.82;100.00;100654.94;4988479;28;20053;-69
2021/12/15 01:34:51;;;;;;;0.25;0.25;;;;;;;5.79;100.00;100649.63;4985919;28;20054;-68
2021/12/15 01:37:20;;;;;;;2.40;0.70;;;;;;;5.76;100.00;100652.06;4992634;28;20057;-71
2021/12/15 01:39:53;;;;;;;1.15;0.70;;;;;;;5.67;100.00;100650.81;4993352;28;20046;-71
2021/12/15 01:42:23;;;;;;;1.63;0.70;;;;;;;5.56;100.00;100645.97;4989483;28;20564;-71
2021/12/15 01:47:37;;;;;;;3.20;0.60;;;;;;;5.52;100.00;100649.22;4992190;28;20061;-71
2021/12/15 01:50:06;;;;;;;1.05;0.68;;;;;;;5.51;100.00;100648.34;4992851;28;20046;-71
2021/12/15 01:52:37;;;;;;;2.05;0.57;;;;;;;5.47;100.00;100641.28;4990984;28;20073;-74
2021/12/15 01:55:11;;;;;;;2.25;0.80;;;;;;;5.51;100.00;100640.63;4980939;28;20061;-67
2021/12/15 01:57:40;;;;;;;3.22;1.10;;;;;;;5.52;100.00;100637.28;4976295;28;20053;-68
2021/12/15 02:00:21;;;;;;;0.77;0.77;;;;;;;5.55;100.00;100637.41;4656013;28;9311633;-69
2021/12/15 02:02:51;;;;;;;1.10;0.63;;;;;;;5.57;100.00;100638.38;4993796;28;20496;-68
2021/12/15 02:05:21;;;;;;;3.90;0.95;;;;;;;5.56;100.00;100639.16;4980191;28;20397;-73
2021/12/15 02:07:49;;;;;;;2.17;1.30;;;;;;;5.54;100.00;100643.34;4993742;28;20512;-69
2021/12/15 02:10:23;;;;;;;1.75;0.65;;;;;;;5.51;100.00;100643.19;4983409;28;20113;-72
2021/12/15 02:12:52;;;;;;;2.75;1.10;;;;;;;5.46;100.00;100634.41;4991185;28;20061;-72
2021/12/15 02:15:25;;;;;;;3.00;1.10;;;;;;;5.45;100.00;100637.75;4993649;28;20046;-71
2021/12/15 02:17:54;;;;;;;2.40;1.10;;;;;;;5.44;100.00;100636.88;4993810;28;20050;-71
2021/12/15 02:20:28;;;;;;;2.50;1.27;;;;;;;5.44;100.00;100631.75;4993459;28;20057;-70
2021/12/15 02:22:57;;;;;;;6.18;2.28;;;;;;;5.40;100.00;100644.38;4992864;28;20125;-71
2021/12/15 02:25:25;;;;;;;1.65;0.80;;;;;;;5.38;100.00;100640.84;4993373;28;20055;-70
2021/12/15 02:27:54;;;;;;;4.00;1.50;;;;;;;5.36;100.00;100632.19;4995080;28;20050;-69
2021/12/15 02:30:42;;;;;;;2.40;0.90;;;;;;;5.35;100.00;100625.31;4995538;28;20050;-68
2021/12/15 02:33:36;;;;;;;3.03;1.00;;;;;;;5.32;100.00;100620.91;4993874;28;20051;-69
2021/12/15 02:38:49;;;;;;;1.63;0.95;;;;;;;5.23;100.00;100626.47;4992971;28;20069;-69
2021/12/15 02:41:23;;;;;;;6.03;0.88;;;;;;;5.23;100.00;100623.03;4993326;28;20081;-69
2021/12/15 02:43:54;;;;;;;1.00;0.82;;;;;;;5.09;100.00;100604.41;4992625;28;20047;-68
2021/12/15 02:46:23;;;;;;;1.60;0.85;;;;;;;5.12;100.00;100619.06;4992896;28;20049;-68
2021/12/15 02:48:52;;;;;;;3.53;0.77;;;;;;;5.12;100.00;100629.31;4993260;28;20455;-69
2021/12/15 02:51:22;;;;;;;1.98;0.90;;;;;;;5.10;100.00;100621.53;4992549;28;20056;-68
2021/12/15 02:53:51;;;;;;;1.08;0.63;;;;;;;5.09;100.00;100618.94;4992769;28;20385;-68
2021/12/15 02:56:20;;;;;;;1.20;0.75;;;;;;;5.09;100.00;100632.63;4994763;28;20047;-67
2021/12/15 02:59:00;;;;;;;4.15;1.10;;;;;;;5.12;100.00;100622.50;4994405;28;20046;-68
2021/12/15 03:01:37;;;;;;;1.35;0.90;;;;;;;5.13;100.00;100623.38;4992469;28;20050;-67
2021/12/15 03:06:50;;;;;;;1.15;0.70;;;;;;;5.12;100.00;100632.75;4993518;28;20053;-67
2021/12/15 03:17:36;;;;;;;3.33;1.05;;;;;;;5.09;100.00;100636.88;4993157;28;20495;-68
2021/12/15 03:20:06;;;;;;;2.63;1.27;;;;;;;5.04;100.00;100642.66;4992721;28;20105;-67
2021/12/15 03:22:36;;;;;;;2.15;1.25;;;;;;;5.02;100.00;100630.56;4991838;28;20054;-68
2021/12/15 03:25:06;;;;;;;1.67;1.00;;;;;;;4.96;100.00;100626.00;4992381;28;20480;-68
2021/12/15 03:36:04;;;;;;;4.85;1.15;;;;;;;4.81;100.00;100638.94;4922886;29;20048;-70
2021/12/15 03:38:36;;;;;;;1.55;1.08;;;;;;;4.81;100.00;100641.50;4976396;28;20054;-69
2021/12/15 03:41:06;;;;;;;1.65;1.13;;;;;;;4.78;100.00;100649.00;4986568;28;20050;-69
2021/12/15 03:43:35;;;;;;;1.25;0.82;;;;;;;4.78;100.00;100651.56;4985872;28;20050;-69
2021/12/15 03:46:06;;;;;;;0.90;0.55;;;;;;;4.79;100.00;100650.78;4992287;28;20047;-69
2021/12/15 03:48:36;;;;;;;3.20;1.45;;;;;;;4.78;100.00;100661.81;4982290;28;20058;-70
2021/12/15 03:51:05;;;;;;;2.00;0.85;;;;;;;4.75;100.00;100659.13;4976636;28;20936;-68
2021/12/15 03:53:35;;;;;;;3.53;0.95;;;;;;;4.72;100.00;100658.97;4991675;28;20117;-70
2021/12/15 03:56:04;;;;;;;1.75;0.80;;;;;;;4.70;100.00;100664.81;4994042;28;20049;-68
2021/12/15 03:58:33;;;;;;;5.45;1.00;;;;;;;4.66;100.00;100661.22;4992448;28;20056;-69
2021/12/15 04:01:06;;;;;;;0.95;0.57;;;;;;;4.61;100.00;100666.09;4985583;28;20055;-69
2021/12/15 04:03:36;;;;;;;3.75;0.75;;;;;;;4.56;100.00;100671.81;4990408;28;20074;-69
2021/12/15 04:06:07;;;;;;;5.15;0.93;;;;;;;4.56;100.00;100674.38;4992079;28;20050;-70
2021/12/15 04:08:40;;;;;;;1.58;0.80;;;;;;;4.54;100.00;100668.28;4989869;28;20057;-68
2021/12/15 04:11:10;;;;;;;1.17;0.82;;;;;;;4.48;100.00;100668.81;4991962;28;20710;-68
2021/12/15 04:13:40;;;;;;;2.47;0.98;;;;;;;4.49;100.00;100665.47;4991956;28;20746;-69
2021/12/15 04:16:15;;;;;;;3.20;1.17;;;;;;;4.50;100.00;100663.78;4991850;28;20110;-68
2021/12/15 04:18:44;;;;;;;1.80;0.80;;;;;;;4.47;100.00;100654.25;4992456;28;20051;-68
2021/12/15 04:21:13;;;;;;;1.55;0.77;;;;;;;4.47;100.00;100668.75;4990421;28;20133;-67
2021/12/15 04:23:42;;;;;;;1.23;0.75;;;;;;;4.46;100.00;100661.84;4976238;28;20053;-69
2021/12/15 04:26:11;;;;;;;1.48;1.38;;;;;;;4.47;100.00;100663.63;4991688;28;20070;-68
2021/12/15 04:28:39;;;;;;;0.90;0.68;;;;;;;4.45;100.00;100666.09;4994744;28;20285;-68
2021/12/15 04:31:11;;;;;;;3.67;0.85;;;;;;;4.43;100.00;100654.03;4991772;28;20129;-69
2021/12/15 04:33:43;;;;;;;3.67;1.00;;;;;;;4.43;100.00;100661.69;4989777;28;20152;-69
2021/12/15 04:36:14;;;;;;;1.63;0.93;;;;;;;4.41;100.00;100654.81;4991831;28;20060;-69
2021/12/15 04:38:45;;;;;;;2.03;0.95;;;;;;;4.43;100.00;100651.47;4990046;28;20057;-69
2021/12/15 04:41:16;;;;;;;1.23;0.85;;;;;;;4.46;100.00;100656.72;4985983;28;20050;-69
2021/12/15 04:43:46;;;;;;;1.83;0.55;;;;;;;4.49;100.00;100655.22;4991487;28;20073;-69
2021/12/15 04:46:15;;;;;;;2.20;0.80;;;;;;;4.50;100.00;100653.53;4978484;28;20129;-68
2021/12/15 04:48:44;;;;;;;2.50;1.08;;;;;;;4.52;100.00;100646.81;4991345;28;20174;-71
2021/12/15 04:51:12;;;;;;;0.70;0.65;;;;;;;4.52;100.00;100650.25;4991126;28;20053;-69
2021/12/15 04:53:41;;;;;;;2.90;0.90;;;;;;;4.57;100.00;100653.91;4990838;28;20129;-69
2021/12/15 04:56:11;;;;;;;2.30;1.02;;;;;;;4.62;100.00;100654.16;4986811;28;20111;-69
2021/12/15 04:58:40;;;;;;;1.92;1.00;;;;;;;4.67;100.00;100649.28;4989379;28;20046;-69
2021/12/15 05:01:11;;;;;;;1.13;0.65;;;;;;;4.72;100.00;100650.38;4992397;28;20050;-69
2021/12/15 05:03:39;;;;;;;1.10;0.77;;;;;;;4.74;100.00;100642.00;4977340;28;20050;-69
2021/12/15 05:06:09;;;;;;;1.65;0.82;;;;;;;4.74;100.00;100644.56;4991374;28;20061;-69
2021/12/15 05:08:39;;;;;;;1.40;0.68;;;;;;;4.72;100.00;100652.94;4988965;28;20129;-71
2021/12/15 05:11:10;;;;;;;2.45;0.98;;;;;;;4.74;100.00;100654.81;4990726;28;20057;-69
2021/12/15 05:13:40;;;;;;;1.27;1.02;;;;;;;4.74;100.00;100651.34;4991202;28;20081;-70
2021/12/15 05:16:09;;;;;;;1.80;0.82;;;;;;;4.73;100.00;100650.47;4991082;28;20564;-69
2021/12/15 05:18:37;;;;;;;1.23;0.68;;;;;;;4.71;100.00;100649.50;4991309;28;20074;-69
2021/12/15 05:21:07;;;;;;;3.33;0.70;;;;;;;4.71;100.00;100654.63;4991609;28;20046;-69
2021/12/15 05:23:35;;;;;;;1.23;0.70;;;;;;;4.70;100.00;100654.56;4990904;28;20046;-69
2021/12/15 05:26:05;;;;;;;1.42;0.65;;;;;;;4.69;100.00;100653.66;4991482;28;20046;-71
2021/12/15 05:28:35;;;;;;;1.15;0.60;;;;;;;4.67;100.00;100656.97;4993684;28;20050;-70
2021/12/15 05:31:04;;;;;;;0.52;0.35;;;;;;;4.67;100.00;100650.13;4984385;28;20484;-70
2021/12/15 05:33:34;;;;;;;1.92;0.63;;;;;;;4.65;100.00;100649.22;4991429;28;20161;-70
2021/12/15 05:36:03;;;;;;;1.75;0.88;;;;;;;4.64;100.00;100642.31;4983252;28;20385;-70
2021/12/15 05:38:31;;;;;;;1.42;0.63;;;;;;;4.63;100.00;100643.13;4990964;28;20053;-71
2021/12/15 05:41:00;;;;;;;0.80;0.60;;;;;;;4.61;100.00;100652.41;4977516;28;20042;-70
2021/12/15 05:43:29;;;;;;;0.60;0.47;;;;;;;4.51;100.00;100624.53;5002020;28;20046;-70
2021/12/15 05:45:59;;;;;;;0.40;0.40;;;;;;;4.56;100.00;100647.06;4992271;28;20062;-70
2021/12/15 05:48:28;;;;;;;1.45;0.57;;;;;;;4.55;100.00;100636.72;4991177;28;20054;-70
2021/12/15 05:50:57;;;;;;;1.27;0.52;;;;;;;4.53;100.00;100643.44;4990783;28;20054;-70
2021/12/15 05:53:25;;;;;;;6.03;0.93;;;;;;;4.50;100.00;100649.28;4990820;28;20132;-70
2021/12/15 05:56:08;;;;;;;2.15;0.52;;;;;;;4.49;100.00;100655.22;4992360;28;20530;-70
2021/12/15 05:58:37;;;;;;;1.85;0.47;;;;;;;4.46;100.00;100656.72;4978324;28;20122;-70
2021/12/15 06:01:08;;;;;;;0.57;0.40;;;;;;;4.46;100.00;100662.72;4992416;28;20058;-70
2021/12/15 06:03:36;;;;;;;0.70;0.30;;;;;;;4.46;100.00;100657.59;4988158;28;20081;-71
2021/12/15 06:06:04;;;;;;;1.02;0.50;;;;;;;4.45;100.00;100655.84;4984420;28;20046;-68
2021/12/15 06:08:33;;;;;;;1.52;0.65;;;;;;;4.45;100.00;100657.53;4994559;28;20058;-69
2021/12/15 06:11:02;;;;;;;0.95;0.55;;;;;;;4.45;100.00;100653.28;4994277;28;20133;-70
2021/12/15 06:13:30;;;;;;;5.85;0.70;;;;;;;4.44;100.00;100650.63;4994105;28;20050;-70
2021/12/15 06:15:59;;;;;;;2.22;0.75;;;;;;;4.43;100.00;100648.91;4994764;28;20124;-70
2021/12/15 06:18:29;;;;;;;2.08;0.70;;;;;;;4.37;100.00;100642.63;4981335;28;20133;-69
2021/12/15 06:20:58;;;;;;;0.40;0.40;;;;;;;4.30;100.00;100648.22;4994398;28;20078;-68
2021/12/15 06:23:28;;;;;;;1.15;0.50;;;;;;;4.20;100.00;100654.56;4993778;28;20607;-69
2021/12/15 06:26:00;;;;;;;1.48;0.50;;;;;;;4.13;100.00;100646.47;4994607;28;20065;-70
2021/12/15 06:28:30;;;;;;;1.13;0.70;;;;;;;3.99;100.00;100632.94;4992090;28;20069;-69
2021/12/15 06:31:00;;;;;;;0.90;0.40;;;;;;;4.07;100.00;100639.31;4977701;28;20150;-70
2021/12/15 06:33:31;;;;;;;1.00;0.52;;;;;;;4.05;100.00;100645.16;4995605;28;20113;-67
2021/12/15 06:36:02;;;;;;;0.40;0.30;;;;;;;4.06;100.00;100647.81;4981203;28;20127;-69
2021/12/15 06:38:32;;;;;;;1.23;0.40;;;;;;;4.05;100.00;100638.34;4993741;28;20043;-70
2021/12/15 06:41:01;;;;;;;0.77;0.47;;;;;;;4.03;100.00;100641.63;4994396;28;20089;-68
2021/12/15 06:43:30;;;;;;;1.05;0.40;;;;;;;4.03;100.00;100632.28;4993511;28;20492;-69
2021/12/15 06:46:15;;;;;;;1.10;0.47;;;;;;;4.04;100.00;100638.28;4997504;28;20561;-67
2021/12/15 06:57:32;;;;;;;1.58;0.52;;;;;;;4.06;100.00;100634.16;4995562;28;20105;-68
2021/12/15 07:00:02;;;;;;;1.05;0.52;;;;;;;4.05;100.00;100635.78;4989571;28;20054;-67
2021/12/15 07:02:31;;;;;;;0.88;0.40;;;;;;;4.08;100.00;100637.66;4985906;28;20057;-67
2021/12/15 07:05:01;;;;;;;0.93;0.70;;;;;;;4.08;100.00;100637.66;4985749;28;20156;-67
2021/12/15 07:07:30;;;;;;;2.10;0.85;;;;;;;3.99;100.00;100620.13;4993452;28;20054;-67
2021/12/15 07:09:58;;;;;;;0.90;0.55;;;;;;;4.11;100.00;100633.56;4993875;28;20046;-67
2021/12/15 07:12:26;;;;;;;0.35;0.35;;;;;;;4.13;100.00;100631.09;4991885;28;20046;-67
2021/12/15 07:14:55;;;;;;;1.75;0.70;;;;;;;4.10;100.00;100628.38;4993520;28;20061;-67
2021/12/15 07:17:25;;;;;;;2.20;0.98;;;;;;;4.06;100.00;100629.91;4993110;28;20042;-67
2021/12/15 07:20:06;;;;;;;4.90;0.95;;;;;;;4.05;100.00;100629.81;4993646;28;20050;-67
2021/12/15 07:22:43;;;;;;;2.67;0.90;;;;;;;4.04;100.00;100626.38;4992869;28;20479;-67
2021/12/15 07:25:14;;;;;;;1.00;0.80;;;;;;;4.02;100.00;100627.97;4993522;28;20143;-67
2021/12/15 07:27:43;;;;;;;0.93;0.77;;;;;;;3.97;100.00;100624.28;4993442;28;20138;-68
2021/12/15 07:30:12;;;;;;;1.30;1.08;;;;;;;3.90;100.00;100617.94;4996278;28;20057;-67
2021/12/15 07:32:41;;;;;;;0.88;0.50;;;;;;;3.89;100.00;100621.28;4981850;28;20271;-67
2021/12/15 07:35:10;;;;;;;1.45;0.65;;;;;;;3.90;100.00;100615.38;4990953;28;20053;-68
2021/12/15 07:37:42;;;;;;;2.97;0.73;;;;;;;3.95;100.00;100618.19;4992957;28;20108;-68
2021/12/15 07:40:18;;;;;;;1.17;0.60;;;;;;;3.98;100.00;100615.78;4992025;28;20050;-68
2021/12/15 07:42:56;;;;;;;2.03;0.70;;;;;;;3.94;100.00;100603.63;4989447;28;20129;-68
2021/12/15 07:45:26;;;;;;;1.70;0.50;;;;;;;4.01;100.00;100607.38;4992714;28;20054;-68
2021/12/15 07:47:57;;;;;;;1.00;0.60;;;;;;;4.04;100.00;100612.69;4992832;28;20503;-68
2021/12/15 07:50:30;;;;;;;1.63;0.98;;;;;;;4.04;100.00;100611.00;4992991;28;20050;-67
2021/12/15 07:53:00;;;;;;;1.52;0.60;;;;;;;4.08;100.00;100617.19;4992228;28;20508;-68
2021/12/15 07:55:29;;;;;;;1.23;0.60;;;;;;;4.11;100.00;100612.22;4993236;28;20065;-67
2021/12/15 07:57:57;;;;;;;4.35;0.80;;;;;;;4.14;100.00;100617.50;4993675;28;20121;-68
2021/12/15 08:00:27;;;;;;;1.00;0.63;;;;;;;4.16;100.00;100605.66;4993826;28;20137;-68
2021/12/15 08:02:56;;;;;;;1.30;0.70;;;;;;;4.19;100.00;100603.25;4977674;28;20061;-68
2021/12/15 08:05:24;;;;;;;1.17;0.75;;;;;;;4.18;100.00;100598.94;4992614;28;20060;-67
2021/12/15 08:07:53;;;;;;;0.95;0.60;;;;;;;4.17;100.00;100599.75;4992165;28;20064;-68
2021/12/15 08:10:23;;;;;;;2.03;0.80;;;;;;;4.20;100.00;100600.78;4992460;28;20109;-68
2021/12/15 08:12:52;;;;;;;1.10;0.68;;;;;;;4.23;100.00;100594.94;4992452;28;20050;-68
2021/12/15 08:15:21;;;;;;;2.47;1.02;;;;;;;4.26;100.00;100591.63;4993414;28;20149;-68
2021/12/15 08:17:51;;;;;;;1.73;0.50;;;;;;;4.28;100.00;100596.03;4992671;28;20046;-67
2021/12/15 08:20:23;;;;;;;1.33;0.80;;;;;;;4.32;100.00;100595.41;4992933;28;20407;-68
2021/12/15 08:22:52;;;;;;;3.55;0.60;;;;;;;4.34;100.00;100581.00;4991658;28;20052;-68
2021/12/15 08:25:23;;;;;;;1.27;0.50;;;;;;;4.36;100.00;100579.41;4992470;28;20058;-67
2021/12/15 08:27:53;;;;;;;0.75;0.65;;;;;;;4.34;100.00;100575.00;4992417;28;20054;-68
2021/12/15 08:30:24;;;;;;;4.78;1.00;;;;;;;4.34;100.00;100572.44;4984006;28;20125;-68
2021/12/15 08:32:55;;;;;;;2.65;0.60;;;;;;;4.35;100.00;100567.41;4992424;28;20047;-68
2021/12/15 08:35:26;;;;;;;1.55;0.70;;;;;;;4.34;100.00;100570.75;4992403;28;20051;-67
2021/12/15 08:37:55;;;;;;;0.98;0.40;;;;;;;4.33;100.00;100578.34;4991843;28;20046;-68
2021/12/15 08:40:28;;;;;;;0.82;0.43;;;;;;;4.31;100.00;100569.72;4992398;28;20047;-68
2021/12/15 08:42:57;;;;;;;0.88;0.43;;;;;;;4.28;100.00;100565.31;4991429;28;20130;-68
2021/12/15 08:45:27;;;;;;;1.23;0.85;;;;;;;4.27;100.00;100563.56;4992043;28;20050;-67
2021/12/15 08:47:57;;;;;;;0.57;0.40;;;;;;;4.28;100.00;100565.31;4978445;28;20054;-68
2021/12/15 08:50:29;;;;;;;2.65;0.85;;;;;;;4.26;100.00;100561.81;4991793;28;20087;-68
2021/12/15 08:52:57;;;;;;;0.90;0.60;;;;;;;4.27;100.00;100563.56;4990997;28;20050;-68
2021/12/15 08:55:27;;;;;;;2.95;0.52;;;;;;;4.28;100.00;100555.06;4992205;28;20057;-67
2021/12/15 08:57:58;;;;;;;3.70;0.70;;;;;;;4.28;100.00;100549.94;4992490;28;20042;-68
2021/12/15 09:00:28;;;;;;;2.28;1.25;;;;;;;4.27;100.00;100552.44;4992813;28;20054;-68
2021/12/15 09:02:57;;;;;;;1.02;0.50;;;;;;;4.25;100.00;100544.66;4990250;28;20046;-68
2021/12/15 09:05:26;;;;;;;0.88;0.40;;;;;;;4.28;100.00;100543.94;4991909;28;20484;-68
2021/12/15 09:07:57;;;;;;;0.60;0.50;;;;;;;4.30;100.00;100543.22;4991187;28;20514;-68
2021/12/15 09:10:30;;;;;;;0.75;0.47;;;;;;;4.35;100.00;100551.13;4991366;28;20050;-68
2021/12/15 09:12:59;;;;;;;0.47;0.47;;;;;;;4.37;100.00;100545.28;4988008;28;20049;-68
2021/12/15 09:15:29;;;;;;;2.17;0.55;;;;;;;4.38;100.00;100546.19;5000095;28;20050;-67
2021/12/15 09:17:58;;;;;;;0.60;0.32;;;;;;;4.38;100.00;100543.63;4991195;28;20050;-68
2021/12/15 09:20:29;;;;;;;1.60;0.90;;;;;;;4.40;100.00;100542.91;4991670;28;20101;-68
2021/12/15 09:22:59;;;;;;;1.17;0.90;;;;;;;4.41;100.00;100536.97;4990824;28;20055;-68
2021/12/15 09:25:29;;;;;;;0.95;0.65;;;;;;;4.43;100.00;100531.06;4991544;28;20126;-68
2021/12/15 09:27:58;;;;;;;1.10;0.45;;;;;;;4.43;100.00;100533.59;4991318;28;20068;-68
2021/12/15 09:30:29;;;;;;;2.47;0.40;;;;;;;4.43;100.00;100541.28;4995327;28;20050;-68
2021/12/15 09:32:58;;;;;;;0.50;0.35;;;;;;;4.44;100.00;100532.78;4980588;28;20042;-68
2021/12/15 09:35:30;;;;;;;0.93;0.68;;;;;;;4.44;100.00;100543.03;4989231;28;20141;-68
2021/12/15 09:37:59;;;;;;;1.17;0.60;;;;;;;4.46;100.00;100538.88;4995192;28;20152;-67
2021/12/15 09:40:29;;;;;;;1.25;0.63;;;;;;;4.47;100.00;100538.97;4981425;28;20062;-68
2021/12/15 09:42:58;;;;;;;1.23;0.73;;;;;;;4.47;100.00;100541.53;4995194;28;20137;-68
2021/12/15 09:45:38;;;;;;;0.55;0.50;;;;;;;4.48;100.00;100535.59;4994823;28;20133;-68
2021/12/15 09:56:50;;;;;;;2.15;1.17;;;;;;;4.57;100.00;100528.34;4996778;28;20554;-68
2021/12/15 10:02:12;;;;;;;3.10;0.60;;;;;;;4.60;100.00;100513.16;4995100;28;20061;-68
2021/12/15 10:04:47;;;;;;;0.80;0.63;;;;;;;4.61;100.00;100519.16;4991802;28;20130;-68
2021/12/15 10:10:38;;;;;;;2.58;0.52;;;;;;;4.63;100.00;100517.56;4989447;28;20114;-68
2021/12/15 10:18:35;;;;;;;3.30;0.93;;;;;;;4.63;100.00;100512.44;4971001;28;20089;-68
2021/12/15 10:21:05;;;;;;;3.55;0.70;;;;;;;4.61;100.00;100517.47;4980305;28;20493;-68
2021/12/15 10:23:38;;;;;;;0.75;0.60;;;;;;;4.60;100.00;100512.25;4982130;28;20500;-68
2021/12/15 10:26:08;;;;;;;1.08;0.50;;;;;;;4.60;100.00;100510.59;4994994;28;20057;-68
2021/12/15 10:28:39;;;;;;;0.80;0.43;;;;;;;4.61;100.00;100512.34;4968605;28;20051;-68
2021/12/15 10:31:11;;;;;;;1.40;0.60;;;;;;;4.62;100.00;100505.53;4985922;28;20133;-68
2021/12/15 10:33:43;;;;;;;2.83;1.00;;;;;;;4.60;100.00;100513.16;4974971;28;20054;-68
2021/12/15 10:36:14;;;;;;;0.50;0.50;;;;;;;4.58;100.00;100498.47;4975043;28;20050;-68
2021/12/15 10:38:45;;;;;;;1.45;0.60;;;;;;;4.58;100.00;100499.38;4988236;28;20054;-68
2021/12/15 10:41:17;;;;;;;0.82;0.40;;;;;;;4.58;100.00;100498.47;4983103;28;20159;-68
2021/12/15 10:43:50;;;;;;;0.93;0.60;;;;;;;4.59;100.00;100495.13;4993507;28;20057;-69
2021/12/15 10:46:21;;;;;;;2.63;0.65;;;;;;;4.59;100.00;100490.88;4994281;28;20042;-68
2021/12/15 10:48:57;;;;;;;1.73;0.40;;;;;;;4.59;100.00;100490.00;4980523;28;20047;-68
2021/12/15 10:51:32;;;;;;;1.08;0.55;;;;;;;4.59;100.00;100484.88;4961773;28;20047;-68
2021/12/15 10:54:02;;;;;;;2.05;0.60;;;;;;;4.56;100.00;100479.63;4966329;28;20055;-68
2021/12/15 10:56:34;;;;;;;0.77;0.45;;;;;;;4.57;100.00;100481.38;4974960;28;20053;-68
2021/12/15 10:59:07;;;;;;;1.63;0.65;;;;;;;4.57;100.00;100478.81;4986526;28;20105;-68
2021/12/15 11:04:43;;;;;;;1.63;0.68;;;;;;;4.57;100.00;100476.25;4750461;26;20059;-67
2021/12/15 11:07:16;;;;;;;2.35;0.75;;;;;;;4.57;100.00;100471.13;4991170;28;20046;-66
2021/12/15 11:09:48;;;;;;;2.55;0.70;;;;;;;4.57;100.00;100461.75;4993764;28;20047;-67
2021/12/15 11:12:21;;;;;;;1.17;0.52;;;;;;;4.56;100.00;100464.25;4992564;28;20046;-67
2021/12/15 11:14:53;;;;;;;1.88;0.63;;;;;;;4.55;100.00;100453.09;4992226;28;20050;-67
2021/12/15 11:17:24;;;;;;;1.03;0.50;;;;;;;4.55;100.00;100453.09;4993350;28;20047;-67
2021/12/15 11:19:58;;;;;;;1.50;0.65;;;;;;;4.54;100.00;100445.34;4990630;28;20383;-67
2021/12/15 11:22:52;;;;;;;1.02;0.65;;;;;;;4.53;100.00;100446.13;4983068;28;20070;-67
2021/12/15 11:25:27;;;;;;;1.10;0.60;;;;;;;4.54;100.00;100450.47;4987283;28;20105;-67
2021/12/15 11:28:00;;;;;;;1.88;0.60;;;;;;;4.53;100.00;100439.31;4985293;28;20133;-67
2021/12/15 11:30:35;;;;;;;0.65;0.63;;;;;;;4.55;100.00;100436.84;4983808;28;20042;-67
2021/12/15 11:33:07;;;;;;;0.63;0.30;;;;;;;4.54;100.00;100435.09;4991981;28;20054;-67
2021/12/15 11:35:38;;;;;;;0.90;0.52;;;;;;;4.53;100.00;100434.19;4989053;28;20073;-67
2021/12/15 11:38:11;;;;;;;0.55;0.45;;;;;;;4.53;100.00;100423.09;4989212;28;20046;-66
2021/12/15 11:40:45;;;;;;;1.77;0.70;;;;;;;4.52;100.00;100426.47;4976475;28;20051;-66
2021/12/15 11:43:29;;;;;;;1.45;0.80;;;;;;;4.51;100.00;100415.34;4988743;28;20145;-67
2021/12/15 11:46:00;;;;;;;2.28;0.98;;;;;;;4.50;100.00;100408.44;4982993;28;20130;-67
2021/12/15 11:48:32;;;;;;;1.02;0.63;;;;;;;4.48;100.00;100412.63;4989465;28;20046;-66
2021/12/15 11:51:03;;;;;;;2.17;0.82;;;;;;;4.51;100.00;100414.44;4974267;28;20094;-67
2021/12/15 11:53:38;;;;;;;0.90;0.60;;;;;;;4.50;100.00;100417.81;4985961;28;20054;-67
2021/12/15 11:56:22;;;;;;;2.83;0.90;;;;;;;4.47;100.00;100412.56;4991954;28;20046;-66
2021/12/15 11:58:54;;;;;;;0.98;0.63;;;;;;;4.43;100.00;100402.97;4973093;28;20517;-66
2021/12/15 12:01:50;;;;;;;0.57;0.40;;;;;;;4.43;100.00;100405.53;4967355;28;20051;-66
2021/12/15 12:04:24;;;;;;;2.20;0.52;;;;;;;4.43;100.00;100398.72;4961219;28;20058;-67
2021/12/15 12:06:56;;;;;;;1.48;0.75;;;;;;;4.43;100.00;100401.28;4972490;28;20515;-67
2021/12/15 12:09:25;;;;;;;1.38;0.57;;;;;;;4.43;100.00;100396.16;4972815;28;20097;-67
2021/12/15 12:11:59;;;;;;;2.03;0.68;;;;;;;4.41;100.00;100396.06;4970739;28;20079;-67
2021/12/15 12:14:39;;;;;;;2.17;0.68;;;;;;;4.41;100.00;100385.81;4972018;28;20051;-67
2021/12/15 12:17:14;;;;;;;2.30;0.80;;;;;;;4.41;100.00;100395.19;4971950;28;20472;-67
2021/12/15 12:19:45;;;;;;;3.25;0.57;;;;;;;4.43;100.00;100387.59;4972062;28;20058;-67
2021/12/15 12:22:15;;;;;;;0.25;0.25;;;;;;;4.44;100.00;100387.63;4971777;28;20047;-68
2021/12/15 12:24:47;;;;;;;1.33;0.85;;;;;;;4.46;100.00;100380.03;4972462;28;20051;-69
2021/12/15 12:27:16;;;;;;;2.25;0.60;;;;;;;4.46;100.00;100383.47;4972193;28;20583;-69
2021/12/15 12:29:45;;;;;;;3.90;0.47;;;;;;;4.47;100.00;100375.00;4972578;28;20054;-69
2021/12/15 12:32:15;;;;;;;0.95;0.50;;;;;;;4.47;100.00;100376.69;4971869;28;20077;-68
2021/12/15 12:34:44;;;;;;;0.70;0.50;;;;;;;4.47;100.00;100371.56;4971992;28;20053;-68
2021/12/15 12:37:14;;;;;;;0.70;0.50;;;;;;;4.44;100.00;100363.72;4973247;28;20054;-68
2021/12/15 12:39:43;;;;;;;1.15;0.60;;;;;;;4.46;100.00;100368.09;4971892;28;20043;-68
2021/12/15 12:42:12;;;;;;;0.32;0.32;;;;;;;4.45;100.00;100362.94;4973022;28;20484;-67
2021/12/15 12:44:44;;;;;;;1.67;0.52;;;;;;;4.44;100.00;100358.59;4971811;28;20059;-67